createdAt,value
2024-03-16T00:02:04.826Z,3.05
2024-03-16T00:04:31.431Z,2.55
2024-03-16T00:06:59.211Z,3.03
2024-03-16T00:09:26.156Z,2.50
2024-03-16T00:11:52.907Z,3.00
2024-03-16T00:14:19.344Z,2.47
2024-03-16T00:16:45.830Z,2.70
2024-03-16T00:19:12.486Z,1.77
2024-03-16T00:21:39.014Z,2.75
2024-03-16T00:24:05.838Z,2.20
2024-03-16T00:26:32.332Z,2.88
2024-03-16T00:28:59.518Z,2.65
2024-03-16T00:31:26.087Z,2.33
2024-03-16T00:33:52.608Z,2.75
2024-03-16T00:36:19.062Z,2.60
2024-03-16T00:38:50.659Z,3.05
2024-03-16T00:41:21.233Z,3.78
2024-03-16T00:43:47.711Z,2.47
2024-03-16T00:46:14.390Z,2.17
2024-03-16T00:48:41.158Z,2.27
2024-03-16T00:51:07.626Z,2.47
2024-03-16T00:53:34.373Z,2.72
2024-03-16T00:56:00.935Z,2.75
2024-03-16T00:58:28.598Z,2.05
2024-03-16T01:00:55.187Z,2.50
2024-03-16T01:03:21.878Z,2.88
2024-03-16T01:05:57.491Z,2.58
2024-03-16T01:08:24.169Z,3.13
2024-03-16T01:10:55.965Z,2.90
2024-03-16T01:13:23.785Z,3.00
2024-03-16T01:15:51.111Z,2.72
2024-03-16T01:18:17.737Z,2.65
2024-03-16T01:20:45.181Z,3.15
2024-03-16T01:23:14.210Z,2.88
2024-03-16T01:25:41.239Z,3.50
2024-03-16T01:28:07.925Z,3.47
2024-03-16T01:30:34.589Z,3.60
2024-03-16T01:33:01.375Z,3.00
2024-03-16T01:35:27.891Z,4.15
2024-03-16T01:37:54.380Z,5.00
2024-03-16T01:40:25.947Z,4.65
2024-03-16T01:42:55.856Z,3.25
2024-03-16T01:45:22.599Z,4.32
2024-03-16T01:47:49.253Z,4.25
2024-03-16T01:50:24.861Z,3.77
2024-03-16T01:52:51.460Z,3.42
2024-03-16T01:55:18.592Z,4.18
2024-03-16T01:57:45.778Z,2.38
2024-03-16T02:00:13.288Z,2.42
2024-03-16T02:02:40.455Z,2.67
2024-03-16T02:05:08.571Z,2.35
2024-03-16T02:07:38.177Z,2.53
2024-03-16T02:10:06.911Z,1.10
2024-03-16T02:12:33.599Z,0.93
2024-03-16T02:15:00.829Z,0.80
2024-03-16T02:17:28.625Z,0.68
2024-03-16T02:19:55.481Z,0.70
2024-03-16T02:22:22.009Z,0.70
2024-03-16T02:24:48.689Z,0.68
2024-03-16T02:27:16.025Z,1.00
2024-03-16T02:29:43.401Z,1.38
2024-03-16T02:32:11.125Z,0.93
2024-03-16T02:34:38.531Z,1.20
2024-03-16T02:37:06.053Z,0.88
2024-03-16T02:39:35.223Z,0.97
2024-03-16T02:42:03.610Z,1.13
2024-03-16T02:44:31.135Z,0.70
2024-03-16T02:46:58.279Z,0.90
2024-03-16T02:49:25.297Z,0.70
2024-03-16T02:51:51.858Z,0.67
2024-03-16T02:54:19.068Z,1.02
2024-03-16T02:56:46.478Z,1.33
2024-03-16T02:59:14.130Z,1.25
2024-03-16T03:01:40.899Z,0.88
2024-03-16T03:04:08.720Z,0.70
2024-03-16T03:06:35.673Z,1.00
2024-03-16T03:09:02.555Z,1.50
2024-03-16T03:11:29.328Z,1.38
2024-03-16T03:13:56.399Z,1.45
2024-03-16T03:16:25.102Z,1.90
2024-03-16T03:18:52.334Z,2.03
2024-03-16T03:21:19.014Z,2.35
2024-03-16T03:23:46.072Z,1.80
2024-03-16T03:26:12.645Z,1.80
2024-03-16T03:28:39.175Z,1.90
2024-03-16T03:31:07.685Z,1.50
2024-03-16T03:33:34.925Z,1.17
2024-03-16T03:36:03.841Z,1.80
2024-03-16T03:38:31.216Z,1.30
2024-03-16T03:40:59.073Z,1.70
2024-03-16T03:43:25.972Z,1.10
2024-03-16T03:45:58.578Z,1.08
2024-03-16T03:48:25.220Z,0.52
2024-03-16T03:50:57.547Z,0.60
2024-03-16T03:53:26.073Z,0.93
2024-03-16T03:55:52.685Z,0.80
2024-03-16T03:58:22.917Z,0.63
2024-03-16T04:00:50.607Z,0.40
2024-03-16T04:03:17.414Z,0.60
2024-03-16T04:05:46.761Z,0.57
2024-03-16T04:08:13.268Z,0.60
2024-03-16T04:10:40.309Z,0.32
2024-03-16T04:13:06.848Z,0.43
2024-03-16T04:15:33.554Z,0.30
2024-03-16T04:18:00.242Z,0.53
2024-03-16T04:20:26.890Z,0.75
2024-03-16T04:22:53.428Z,0.40
2024-03-16T04:25:20.050Z,0.45
2024-03-16T04:27:46.645Z,0.70
2024-03-16T04:30:14.572Z,0.63
2024-03-16T04:32:41.201Z,0.80
2024-03-16T04:35:08.614Z,0.60
2024-03-16T04:37:35.180Z,0.60
2024-03-16T04:40:04.673Z,0.50
2024-03-16T04:42:31.768Z,0.60
2024-03-16T04:44:58.334Z,0.50
2024-03-16T04:47:24.906Z,0.85
2024-03-16T04:49:51.449Z,0.45
2024-03-16T04:52:18.123Z,0.57
2024-03-16T04:54:44.719Z,0.50
2024-03-16T04:57:11.161Z,0.40
2024-03-16T04:59:37.700Z,0.50
2024-03-16T05:02:04.404Z,0.38
2024-03-16T05:04:30.969Z,0.65
2024-03-16T05:06:57.451Z,0.60
2024-03-16T05:09:24.495Z,0.60
2024-03-16T05:11:51.104Z,0.60
2024-03-16T05:14:17.642Z,0.85
2024-03-16T05:16:44.151Z,0.20
2024-03-16T05:19:10.762Z,0.20
2024-03-16T05:21:37.344Z,0.57
2024-03-16T05:24:07.019Z,0.50
2024-03-16T05:26:35.256Z,0.60
2024-03-16T05:29:01.856Z,0.60
2024-03-16T05:31:28.609Z,0.20
2024-03-16T05:33:55.267Z,0.45
2024-03-16T05:36:21.757Z,1.05
2024-03-16T05:38:48.213Z,0.35
2024-03-16T05:41:15.266Z,0.30
2024-03-16T05:43:45.605Z,0.40
2024-03-16T05:46:12.562Z,0.55
2024-03-16T05:48:39.345Z,0.40
2024-03-16T05:51:08.661Z,0.30
2024-03-16T05:53:35.194Z,0.20
2024-03-16T05:56:01.842Z,0.20
2024-03-16T05:58:29.812Z,0.40
2024-03-16T06:00:57.864Z,0.17
2024-03-16T06:03:27.299Z,0.35
2024-03-16T06:05:54.031Z,0.47
2024-03-16T06:08:20.589Z,0.20
2024-03-16T06:10:48.886Z,0.47
2024-03-16T06:13:16.387Z,0.10
2024-03-16T06:15:43.191Z,0.32
2024-03-16T06:18:09.847Z,0.65
2024-03-16T06:20:36.373Z,0.27
2024-03-16T06:23:02.862Z,0.40
2024-03-16T06:25:30.632Z,0.30
2024-03-16T06:28:06.879Z,0.25
2024-03-16T06:30:34.207Z,0.35
2024-03-16T06:33:07.221Z,0.43
2024-03-16T06:35:34.586Z,0.40
2024-03-16T06:38:01.227Z,0.40
2024-03-16T06:40:27.830Z,0.50
2024-03-16T06:42:54.468Z,0.32
2024-03-16T06:45:21.059Z,0.20
2024-03-16T06:47:47.754Z,0.20
2024-03-16T06:50:14.444Z,0.28
2024-03-16T06:52:41.074Z,0.50
2024-03-16T06:55:10.576Z,0.32
2024-03-16T06:57:37.215Z,0.83
2024-03-16T07:00:04.703Z,0.20
2024-03-16T07:02:31.665Z,1.17
2024-03-16T07:04:58.252Z,0.20
2024-03-16T07:07:24.739Z,0.22
2024-03-16T07:09:51.373Z,0.20
2024-03-16T07:12:18.326Z,0.10
2024-03-16T07:14:44.981Z,0.52
2024-03-16T07:17:11.455Z,0.38
2024-03-16T07:19:37.969Z,0.38
2024-03-16T07:22:07.272Z,0.33
2024-03-16T07:24:34.510Z,0.38
2024-03-16T07:27:01.027Z,0.30
2024-03-16T07:29:27.446Z,0.20
2024-03-16T07:31:54.056Z,0.60
2024-03-16T07:34:20.631Z,0.30
2024-03-16T07:36:47.205Z,0.30
2024-03-16T07:39:13.754Z,0.20
2024-03-16T07:41:40.670Z,0.25
2024-03-16T07:44:07.249Z,0.20
2024-03-16T07:46:33.737Z,0.30
2024-03-16T07:49:00.668Z,0.43
2024-03-16T07:51:30.507Z,0.52
2024-03-16T07:53:57.262Z,0.47
2024-03-16T07:56:23.733Z,0.30
2024-03-16T07:58:50.593Z,0.20
2024-03-16T08:01:17.487Z,0.30
2024-03-16T08:03:45.072Z,0.55
2024-03-16T08:06:12.197Z,0.40
2024-03-16T08:08:41.100Z,0.30
2024-03-16T08:11:08.574Z,0.67
2024-03-16T08:13:38.060Z,0.47
2024-03-16T08:16:05.178Z,0.55
2024-03-16T08:18:31.642Z,0.52
2024-03-16T08:21:01.013Z,0.38
2024-03-16T08:23:29.221Z,0.20
2024-03-16T08:25:55.822Z,0.47
2024-03-16T08:28:23.231Z,0.20
2024-03-16T08:30:50.003Z,0.40
2024-03-16T08:33:16.611Z,0.40
2024-03-16T08:35:43.290Z,0.20
2024-03-16T08:38:10.370Z,0.30
2024-03-16T08:40:36.963Z,0.32
2024-03-16T08:43:03.978Z,0.50
2024-03-16T08:45:31.977Z,0.50
2024-03-16T08:47:58.601Z,0.30
2024-03-16T08:50:25.133Z,0.95
2024-03-16T08:52:51.748Z,0.30
2024-03-16T08:55:19.240Z,0.20
2024-03-16T08:57:46.384Z,0.40
2024-03-16T09:00:16.788Z,0.30
2024-03-16T09:02:43.958Z,0.40
2024-03-16T09:05:10.525Z,0.60
2024-03-16T09:07:39.553Z,0.40
2024-03-16T09:10:12.307Z,0.73
2024-03-16T09:12:39.300Z,0.20
2024-03-16T09:15:12.544Z,0.47
2024-03-16T09:17:39.646Z,0.40
2024-03-16T09:20:11.010Z,0.28
2024-03-16T09:22:38.368Z,0.30
2024-03-16T09:25:07.240Z,0.30
2024-03-16T09:27:35.113Z,0.30
2024-03-16T09:30:02.557Z,0.80
2024-03-16T09:32:29.051Z,0.40
2024-03-16T09:34:55.516Z,0.30
2024-03-16T09:37:22.681Z,0.30
2024-03-16T09:39:49.353Z,0.20
2024-03-16T09:42:15.908Z,0.30
